WetterOnline ( https://www.wetteronline.de )

Wetter aktuell Rhön

Aktuelles Wetter: Wasserkuppe (925m)

6-stündlich | Neueste Meldungen
Ortszeit Temperatur Wetter
Di, 24.05. 2:00 11.9° C Sprühregen
Mo, 23.05. 20:00 15.2° C bewölkt
Mo, 23.05. 14:00 17.4° C wolkig
Mo, 23.05. 8:00 12.1° C bedeckt
Mo, 23.05. 2:00 9.9° C bewölkt
So, 22.05. 20:00 14.3° C wolkig
So, 22.05. 14:00 15.9° C leicht bewölkt
So, 22.05. 8:00 10.1° C bedeckt
Ortszeit Temperatur Wetter
Di, 24.05. 7:30 9.5° C Nebel
Di, 24.05. 7:20 9.5° C Nebel
Di, 24.05. 7:10 9.5° C Nebel
Di, 24.05. 7:00 9.3° C Nebel
Di, 24.05. 6:50 9.3° C Nebel
Di, 24.05. 6:40 9.5° C Nebel
Di, 24.05. 6:30 9.5° C Nebel
Di, 24.05. 6:00 9.9° C Nebel
Di, 24.05. 5:30 10.0° C Nebel
Di, 24.05. 5:00 9.9° C Nebel
Di, 24.05. 4:30 10.1° C Nebel
Ortszeit Relative Feuchte Sichtweite
Di, 24.05. 2:00 100% 100 m
Mo, 23.05. 20:00 88% 26 km
Mo, 23.05. 14:00 72% 35 km
Mo, 23.05. 8:00 67% 50 km
Mo, 23.05. 2:00 76% 30 km
So, 22.05. 20:00 61% 40 km
So, 22.05. 14:00 49% 45 km
So, 22.05. 8:00 77% 45 km
Ortszeit Relative Feuchte Sichtweite
Di, 24.05. 7:30 99% 100 m
Di, 24.05. 7:20 99% -
Di, 24.05. 7:10 99% -
Di, 24.05. 7:00 99% 0.2 km
Di, 24.05. 6:50 99% -
Di, 24.05. 6:40 99% -
Di, 24.05. 6:30 99% 100 m
Di, 24.05. 6:00 99% <100 m
Di, 24.05. 5:30 99% <100 m
Di, 24.05. 5:00 99% <100 m
Di, 24.05. 4:30 99% 100 m
Ortszeit Niederschlagsmenge Niederschlagsart
Di, 24.05. 2:00 0.1 l/m2 in 6 Std. Regen
Mo, 23.05. 20:00 0.1 l/m2 in 12 Std. -
Mo, 23.05. 14:00 0.1 l/m2 in 6 Std. Regen
Mo, 23.05. 8:00 0.0 l/m2 in 12 Std. -
Mo, 23.05. 2:00 0.0 l/m2 in 6 Std. -
So, 22.05. 20:00 0.0 l/m2 in 12 Std. -
So, 22.05. 14:00 0.0 l/m2 in 6 Std. -
So, 22.05. 8:00 0.0 l/m2 in 12 Std. -
Ortszeit Niederschlagsmenge Niederschlagsart
Di, 24.05. 7:30 0.0 l/m2 in 1 Std. -
Di, 24.05. 7:20 keine Meldung -
Di, 24.05. 7:10 keine Meldung -
Di, 24.05. 7:00 0.0 l/m2 in 1 Std. -
Di, 24.05. 6:50 keine Meldung -
Di, 24.05. 6:40 keine Meldung -
Di, 24.05. 6:30 0.0 l/m2 in 1 Std. -
Di, 24.05. 6:00 0.1 l/m2 in 1 Std. Sprühregen
Di, 24.05. 5:30 0.1 l/m2 in 1 Std. -
Di, 24.05. 5:00 0.1 l/m2 in 1 Std. Regen
Di, 24.05. 4:30 0.0 l/m2 in 1 Std. -
Ortszeit Stärke Spitze Richtung
km/h Bft. km/h Grad Sektor
Di, 24.05. 2:00 36 5 68 250° W
Mo, 23.05. 20:00 32 5 58 170° S
Mo, 23.05. 14:00 40 6 58 170° S
Mo, 23.05. 8:00 26 4 39 170° S
Mo, 23.05. 2:00 29 5 43 120° SO
So, 22.05. 20:00 7 2 25 30° NO
So, 22.05. 14:00 11 2 22 260° W
So, 22.05. 8:00 4 1 18 170° S
Ortszeit Stärke Spitze Richtung
km/h Bft. km/h Grad Sektor
Di, 24.05. 7:30 29 5 36 220° SW
Di, 24.05. 7:20 29 5 - 220° SW
Di, 24.05. 7:10 26 4 - 220° SW
Di, 24.05. 7:00 25 4 32 220° SW
Di, 24.05. 6:50 25 4 - 220° SW
Di, 24.05. 6:40 22 4 - 230° SW
Di, 24.05. 6:30 19 3 30 220° SW
Di, 24.05. 6:00 22 4 32 250° W
Di, 24.05. 5:30 18 3 25 260° W
Di, 24.05. 5:00 18 3 36 250° W
Di, 24.05. 4:30 19 3 33 260° W
Ortszeit Untergrenze Bedeckung Gattung
total tief tief mittel hoch
Di, 24.05. 2:00 <30 m 8/8 0/8 - - -
Mo, 23.05. 20:00 3000 m 8/8 7/8 - - -
Mo, 23.05. 14:00 2100 m 6/8 6/8 - - -
Mo, 23.05. 8:00 2400 m 8/8 8/8 - - -
Mo, 23.05. 2:00 4200 m 8/8 5/8 - - -
So, 22.05. 20:00 1050 m 7/8 3/8 - - -
So, 22.05. 14:00 1110 m 2/8 2/8 - - -
So, 22.05. 8:00 1140 m 8/8 8/8 - - -
Ortszeit Bedeckungsgrad in Achtel und Wolkenuntergrenze
Di, 24.05. 7:30 8(<30m)
Di, 24.05. 7:20 8(<30m)
Di, 24.05. 7:10 8
Di, 24.05. 7:00 8(<30m)
Di, 24.05. 6:50 8(<30m)
Di, 24.05. 6:40 8
Di, 24.05. 6:30 8(<30m)
Di, 24.05. 6:00 8(<30m)
Di, 24.05. 5:30 8(<30m)
Di, 24.05. 5:00 8(<30m)
Di, 24.05. 4:30 8(<30m)
Ortszeit Stationsdruck (hPa) Tendenz (hPa in 3 Std.)
Di, 24.05. 2:00 899 + 1,1
Mo, 23.05. 20:00 898 - 1,2
Mo, 23.05. 14:00 901 - 0,4
Mo, 23.05. 8:00 904 - 0,6
Mo, 23.05. 2:00 906 - 1,1
So, 22.05. 20:00 909 - 0,8
So, 22.05. 14:00 911 - 0,7
So, 22.05. 8:00 912 - 0,6
Ortszeit Stationsdruck (hPa) Tendenz (hPa in 3 Std.)
Di, 24.05. 7:30 900 + 0,5
Di, 24.05. 7:20 900 keine Meldung
Di, 24.05. 7:10 900 keine Meldung
Di, 24.05. 7:00 900 + 0,5
Di, 24.05. 6:50 900 keine Meldung
Di, 24.05. 6:40 900 keine Meldung
Di, 24.05. 6:30 899 + 0,3
Di, 24.05. 6:00 899 0,0
Di, 24.05. 5:30 899 + 0,1
Di, 24.05. 5:00 899 + 0,6
Di, 24.05. 4:30 899 + 0,8
Ortszeit Schneehöhe (cm)
Di, 24.05. 2:00 0
Mo, 23.05. 20:00 0
Mo, 23.05. 14:00 0
Mo, 23.05. 8:00 0
Mo, 23.05. 2:00 0
So, 22.05. 20:00 0
So, 22.05. 14:00 0
So, 22.05. 8:00 0
Ortszeit Schneehöhe (cm)
Di, 24.05. 7:30 0
Di, 24.05. 7:20 0
Di, 24.05. 7:10 0
Di, 24.05. 7:00 0
Di, 24.05. 6:50 0
Di, 24.05. 6:40 0
Di, 24.05. 6:30 0
Di, 24.05. 6:00 0
Di, 24.05. 5:30 0
Di, 24.05. 5:00 0
Di, 24.05. 4:30 0
Link zu dieser Seite / Seite empfehlen

Das Wetter in ...